Terminal Aerodrome Forecast
Issued by NWS

Home | Current Version | Previous Version | Text Only | Print | Product List | Glossary Off
Versions: 1 2 3 4 5 6 7 8 9 10 11 12 13 14 15 16 17 18 19 20 21 22 23 24 25

000
FTUS43 KBIS 200500
TAFMOT
TAF
KMOT 200521Z 2006/2106 20006KT 2SM BR OVC002
      TEMPO 2006/2010 1/4SM FZFG OVC001
     FM201000 VRB03KT 1/4SM FZFG OVC001
     FM201600 22005KT 2SM BR OVC002
     FM201800 23007KT P6SM BKN100
     FM210000 25005KT P6SM BKN100=

USA.gov is the U.S. government's official web portal to all federal, state and local government web resources and services.